sensor_id;sensor_type;location;lat;lon;timestamp;pressure;altitude;pressure_sealevel;temperature;humidity
53960;BME280;39866;48.638;-2.020;2023-02-13T00:02:23;103088.00;;;11.52;57.09
53960;BME280;39866;48.638;-2.020;2023-02-13T00:04:48;103096.03;;;11.55;57.35
53960;BME280;39866;48.638;-2.020;2023-02-13T00:07:14;103099.50;;;11.47;57.11
53960;BME280;39866;48.638;-2.020;2023-02-13T00:09:39;103104.03;;;11.55;57.43
53960;BME280;39866;48.638;-2.020;2023-02-13T00:12:06;103093.34;;;11.58;56.93
53960;BME280;39866;48.638;-2.020;2023-02-13T00:14:36;103083.59;;;11.66;56.70
53960;BME280;39866;48.638;-2.020;2023-02-13T00:17:03;103076.41;;;11.47;56.59
53960;BME280;39866;48.638;-2.020;2023-02-13T00:19:28;103089.81;;;11.61;56.67
53960;BME280;39866;48.638;-2.020;2023-02-13T00:21:53;103096.84;;;11.47;56.85
53960;BME280;39866;48.638;-2.020;2023-02-13T00:24:19;103095.94;;;11.41;56.83
53960;BME280;39866;48.638;-2.020;2023-02-13T00:26:44;103089.72;;;11.43;57.35
53960;BME280;39866;48.638;-2.020;2023-02-13T00:29:10;103087.94;;;11.41;57.11
53960;BME280;39866;48.638;-2.020;2023-02-13T00:31:35;103089.72;;;11.39;57.27
53960;BME280;39866;48.638;-2.020;2023-02-13T00:34:00;103092.31;;;11.30;57.49
53960;BME280;39866;48.638;-2.020;2023-02-13T00:36:26;103086.19;;;11.44;57.18
53960;BME280;39866;48.638;-2.020;2023-02-13T00:38:52;103079.97;;;11.49;56.91
53960;BME280;39866;48.638;-2.020;2023-02-13T00:41:18;103093.31;;;11.51;57.05
53960;BME280;39866;48.638;-2.020;2023-02-13T00:43:44;103088.81;;;11.39;57.00
53960;BME280;39866;48.638;-2.020;2023-02-13T00:46:10;103089.72;;;11.39;57.25
53960;BME280;39866;48.638;-2.020;2023-02-13T00:48:35;103092.34;;;11.38;57.33
53960;BME280;39866;48.638;-2.020;2023-02-13T00:51:01;103089.66;;;11.33;57.46
53960;BME280;39866;48.638;-2.020;2023-02-13T00:53:27;103093.25;;;11.35;57.69
53960;BME280;39866;48.638;-2.020;2023-02-13T00:55:52;103092.31;;;11.27;58.00
53960;BME280;39866;48.638;-2.020;2023-02-13T00:58:19;103082.53;;;11.28;57.28
53960;BME280;39866;48.638;-2.020;2023-02-13T01:00:45;103085.22;;;11.34;57.88
53960;BME280;39866;48.638;-2.020;2023-02-13T01:03:12;103083.41;;;11.25;57.90
53960;BME280;39866;48.638;-2.020;2023-02-13T01:05:38;103087.00;;;11.33;57.67
53960;BME280;39866;48.638;-2.020;2023-02-13T01:08:03;103088.75;;;11.28;57.83
53960;BME280;39866;48.638;-2.020;2023-02-13T01:10:29;103085.19;;;11.23;57.88
53960;BME280;39866;48.638;-2.020;2023-02-13T01:12:54;103082.53;;;11.28;57.77
53960;BME280;39866;48.638;-2.020;2023-02-13T01:15:20;103079.00;;;11.33;57.61
53960;BME280;39866;48.638;-2.020;2023-02-13T01:17:45;103080.72;;;11.24;57.35
53960;BME280;39866;48.638;-2.020;2023-02-13T01:20:12;103070.97;;;11.23;57.72
53960;BME280;39866;48.638;-2.020;2023-02-13T01:22:38;103070.97;;;11.23;57.61
53960;BME280;39866;48.638;-2.020;2023-02-13T01:25:04;103073.56;;;11.18;58.25
53960;BME280;39866;48.638;-2.020;2023-02-13T01:27:30;103077.16;;;11.26;57.99
53960;BME280;39866;48.638;-2.020;2023-02-13T01:29:56;103077.19;;;11.23;57.71
53960;BME280;39866;48.638;-2.020;2023-02-13T01:32:22;103069.09;;;11.06;57.89
53960;BME280;39866;48.638;-2.020;2023-02-13T01:34:47;103076.22;;;11.12;57.79
53960;BME280;39866;48.638;-2.020;2023-02-13T01:37:13;103077.13;;;11.17;57.85
53960;BME280;39866;48.638;-2.020;2023-02-13T01:39:38;103064.63;;;11.10;57.97
53960;BME280;39866;48.638;-2.020;2023-02-13T01:42:08;103067.34;;;11.16;58.21
53960;BME280;39866;48.638;-2.020;2023-02-13T01:47:38;103058.47;;;11.22;57.63
53960;BME280;39866;48.638;-2.020;2023-02-13T01:50:23;103059.34;;;11.16;57.88
53960;BME280;39866;48.638;-2.020;2023-02-13T01:52:56;103070.94;;;11.21;57.51
53960;BME280;39866;48.638;-2.020;2023-02-13T01:55:24;103071.81;;;11.22;57.43
53960;BME280;39866;48.638;-2.020;2023-02-13T01:57:55;103057.53;;;11.09;57.66
53960;BME280;39866;48.638;-2.020;2023-02-13T02:00:22;103062.00;;;11.18;57.45
53960;BME280;39866;48.638;-2.020;2023-02-13T02:02:54;103060.22;;;11.10;57.34
53960;BME280;39866;48.638;-2.020;2023-02-13T02:05:25;103057.53;;;11.09;57.51
53960;BME280;39866;48.638;-2.020;2023-02-13T02:07:53;103055.72;;;11.05;57.57
53960;BME280;39866;48.638;-2.020;2023-02-13T02:10:20;103057.50;;;11.06;57.40
53960;BME280;39866;48.638;-2.020;2023-02-13T02:12:50;103060.13;;;11.01;57.46
53960;BME280;39866;48.638;-2.020;2023-02-13T02:15:17;103064.59;;;11.04;57.94
53960;BME280;39866;48.638;-2.020;2023-02-13T02:17:43;103055.75;;;11.08;57.73
53960;BME280;39866;48.638;-2.020;2023-02-13T02:25:42;103062.75;;;10.94;57.72
53960;BME280;39866;48.638;-2.020;2023-02-13T02:28:30;103059.22;;;10.96;57.26
53960;BME280;39866;48.638;-2.020;2023-02-13T02:52:58;103048.44;;;10.79;57.11
53960;BME280;39866;48.638;-2.020;2023-02-13T03:01:05;103040.34;;;10.62;57.56
53960;BME280;39866;48.638;-2.020;2023-02-13T03:03:51;103027.03;;;10.67;57.38
53960;BME280;39866;48.638;-2.020;2023-02-13T03:06:43;103033.25;;;10.69;57.37
53960;BME280;39866;48.638;-2.020;2023-02-13T03:09:14;103035.06;;;10.70;57.36
53960;BME280;39866;48.638;-2.020;2023-02-13T03:11:59;103043.09;;;10.75;57.15
53960;BME280;39866;48.638;-2.020;2023-02-13T03:14:43;103039.44;;;10.63;57.09
53960;BME280;39866;48.638;-2.020;2023-02-13T03:17:14;103039.44;;;10.62;57.27
53960;BME280;39866;48.638;-2.020;2023-02-13T03:23:52;103029.63;;;10.56;57.01
53960;BME280;39866;48.638;-2.020;2023-02-13T03:29:27;103029.63;;;10.53;57.04
53960;BME280;39866;48.638;-2.020;2023-02-13T03:32:45;103033.06;;;10.45;57.14
53960;BME280;39866;48.638;-2.020;2023-02-13T03:35:21;103039.25;;;10.40;57.53
53960;BME280;39866;48.638;-2.020;2023-02-13T03:38:22;103044.59;;;10.44;57.91
53960;BME280;39866;48.638;-2.020;2023-02-13T03:40:59;103045.56;;;10.50;57.70
53960;BME280;39866;48.638;-2.020;2023-02-13T03:44:07;103038.47;;;10.51;57.74
53960;BME280;39866;48.638;-2.020;2023-02-13T03:46:38;103027.78;;;10.46;57.95
53960;BME280;39866;48.638;-2.020;2023-02-13T03:49:10;103028.69;;;10.50;57.82
53960;BME280;39866;48.638;-2.020;2023-02-13T03:52:01;103029.56;;;10.46;57.89
53960;BME280;39866;48.638;-2.020;2023-02-13T03:54:39;103021.47;;;10.36;57.84
53960;BME280;39866;48.638;-2.020;2023-02-13T03:57:26;103025.03;;;10.38;58.22
53960;BME280;39866;48.638;-2.020;2023-02-13T04:00:14;103033.91;;;10.39;58.40
53960;BME280;39866;48.638;-2.020;2023-02-13T04:02:48;103026.72;;;10.27;58.25
53960;BME280;39866;48.638;-2.020;2023-02-13T04:05:25;103028.50;;;10.28;58.20
53960;BME280;39866;48.638;-2.020;2023-02-13T04:07:53;103030.38;;;10.38;58.39
53960;BME280;39866;48.638;-2.020;2023-02-13T04:10:18;103029.56;;;10.47;58.09
53960;BME280;39866;48.638;-2.020;2023-02-13T04:15:32;103012.44;;;10.24;58.43
53960;BME280;39866;48.638;-2.020;2023-02-13T04:18:04;103021.41;;;10.32;58.82
53960;BME280;39866;48.638;-2.020;2023-02-13T04:20:31;103019.66;;;10.29;58.74
53960;BME280;39866;48.638;-2.020;2023-02-13T04:23:03;103018.63;;;10.18;58.72
53960;BME280;39866;48.638;-2.020;2023-02-13T04:25:29;103014.13;;;10.15;58.91
53960;BME280;39866;48.638;-2.020;2023-02-13T04:27:55;103016.06;;;10.26;58.93
53960;BME280;39866;48.638;-2.020;2023-02-13T04:30:20;103022.31;;;10.29;58.67
53960;BME280;39866;48.638;-2.020;2023-02-13T04:32:46;103026.63;;;10.21;58.79
53960;BME280;39866;48.638;-2.020;2023-02-13T04:35:11;103020.38;;;10.17;58.96
53960;BME280;39866;48.638;-2.020;2023-02-13T04:37:38;103005.31;;;10.20;59.19
53960;BME280;39866;48.638;-2.020;2023-02-13T04:40:03;103013.31;;;10.24;58.91
53960;BME280;39866;48.638;-2.020;2023-02-13T04:42:29;103011.41;;;10.08;59.20
53960;BME280;39866;48.638;-2.020;2023-02-13T04:44:54;103020.44;;;10.21;58.96
53960;BME280;39866;48.638;-2.020;2023-02-13T04:47:20;103017.84;;;10.25;59.01
53960;BME280;39866;48.638;-2.020;2023-02-13T04:49:45;103016.06;;;10.27;59.00
53960;BME280;39866;48.638;-2.020;2023-02-13T04:52:11;103016.97;;;10.32;58.90
53960;BME280;39866;48.638;-2.020;2023-02-13T04:54:36;103012.50;;;10.25;59.08
53960;BME280;39866;48.638;-2.020;2023-02-13T04:57:01;103023.00;;;10.16;58.71
53960;BME280;39866;48.638;-2.020;2023-02-13T04:59:27;103018.50;;;10.07;59.15
53960;BME280;39866;48.638;-2.020;2023-02-13T05:01:52;103028.34;;;10.13;58.80
53960;BME280;39866;48.638;-2.020;2023-02-13T05:04:18;103031.03;;;10.17;59.25
53960;BME280;39866;48.638;-2.020;2023-02-13T05:06:43;103020.22;;;10.04;58.87
53960;BME280;39866;48.638;-2.020;2023-02-13T05:09:09;103023.75;;;9.98;59.22
53960;BME280;39866;48.638;-2.020;2023-02-13T05:11:34;103019.22;;;9.89;59.56
53960;BME280;39866;48.638;-2.020;2023-02-13T05:14:00;103018.28;;;9.86;59.33
53960;BME280;39866;48.638;-2.020;2023-02-13T05:16:25;103014.78;;;9.88;59.05
53960;BME280;39866;48.638;-2.020;2023-02-13T05:18:50;103014.03;;;10.02;59.67
53960;BME280;39866;48.638;-2.020;2023-02-13T05:21:19;103003.34;;;9.99;59.02
53960;BME280;39866;48.638;-2.020;2023-02-13T05:24:03;103005.22;;;10.09;59.30
53960;BME280;39866;48.638;-2.020;2023-02-13T05:26:29;103012.22;;;9.98;59.46
53960;BME280;39866;48.638;-2.020;2023-02-13T05:28:54;103001.53;;;9.95;59.45
53960;BME280;39866;48.638;-2.020;2023-02-13T05:31:38;102997.72;;;9.71;59.77
53960;BME280;39866;48.638;-2.020;2023-02-13T05:34:03;102997.84;;;9.83;59.50
53960;BME280;39866;48.638;-2.020;2023-02-13T05:36:28;102995.19;;;9.80;59.59
53960;BME280;39866;48.638;-2.020;2023-02-13T05:38:54;103000.56;;;9.85;59.58
53960;BME280;39866;48.638;-2.020;2023-02-13T05:41:19;103006.81;;;9.88;59.55
53960;BME280;39866;48.638;-2.020;2023-02-13T05:43:44;103008.25;;;9.60;60.06
53960;BME280;39866;48.638;-2.020;2023-02-13T05:46:10;103008.41;;;9.74;60.23
53960;BME280;39866;48.638;-2.020;2023-02-13T05:48:35;103007.56;;;9.78;60.13
53960;BME280;39866;48.638;-2.020;2023-02-13T05:51:01;102972.75;;;9.57;59.73
53960;BME280;39866;48.638;-2.020;2023-02-13T05:53:26;103008.31;;;9.65;60.48
53960;BME280;39866;48.638;-2.020;2023-02-13T05:55:53;102994.88;;;9.54;60.43
53960;BME280;39866;48.638;-2.020;2023-02-13T05:58:19;103006.19;;;9.35;61.01
53960;BME280;39866;48.638;-2.020;2023-02-13T06:00:46;102996.03;;;9.03;61.70
53960;BME280;39866;48.638;-2.020;2023-02-13T06:03:11;102999.69;;;9.11;62.11
53960;BME280;39866;48.638;-2.020;2023-02-13T06:05:37;102999.84;;;9.24;61.43
53960;BME280;39866;48.638;-2.020;2023-02-13T06:08:03;102993.53;;;9.17;62.22
53960;BME280;39866;48.638;-2.020;2023-02-13T06:10:29;103004.94;;;9.08;61.71
53960;BME280;39866;48.638;-2.020;2023-02-13T06:12:54;103014.75;;;9.14;61.72
53960;BME280;39866;48.638;-2.020;2023-02-13T06:15:19;103013.03;;;9.17;61.95
53960;BME280;39866;48.638;-2.020;2023-02-13T06:17:45;103002.25;;;9.05;61.67
53960;BME280;39866;48.638;-2.020;2023-02-13T06:20:10;103016.63;;;9.21;61.84
53960;BME280;39866;48.638;-2.020;2023-02-13T06:22:36;103014.84;;;9.20;61.65
53960;BME280;39866;48.638;-2.020;2023-02-13T06:25:01;103012.69;;;8.91;62.25
53960;BME280;39866;48.638;-2.020;2023-02-13T06:27:26;103005.94;;;9.15;61.84
53960;BME280;39866;48.638;-2.020;2023-02-13T06:29:51;102997.03;;;9.13;61.47
53960;BME280;39866;48.638;-2.020;2023-02-13T06:32:17;103012.09;;;9.14;61.35
53960;BME280;39866;48.638;-2.020;2023-02-13T06:34:42;103018.91;;;8.93;62.38
53960;BME280;39866;48.638;-2.020;2023-02-13T06:37:08;103023.59;;;9.13;62.05
53960;BME280;39866;48.638;-2.020;2023-02-13T06:39:33;103021.72;;;9.03;62.18
53960;BME280;39866;48.638;-2.020;2023-02-13T06:41:58;103026.97;;;9.00;62.61
53960;BME280;39866;48.638;-2.020;2023-02-13T06:44:24;103020.13;;;9.17;61.97
53960;BME280;39866;48.638;-2.020;2023-02-13T06:46:49;103012.03;;;9.08;61.84
53960;BME280;39866;48.638;-2.020;2023-02-13T06:49:14;102999.47;;;8.98;61.71
53960;BME280;39866;48.638;-2.020;2023-02-13T06:51:40;103031.53;;;9.08;61.79
53960;BME280;39866;48.638;-2.020;2023-02-13T06:54:05;103028.91;;;9.11;62.38
53960;BME280;39866;48.638;-2.020;2023-02-13T06:56:30;103028.69;;;8.98;62.12
53960;BME280;39866;48.638;-2.020;2023-02-13T06:58:57;103028.69;;;8.95;62.23
53960;BME280;39866;48.638;-2.020;2023-02-13T07:01:22;103039.25;;;8.91;62.08
53960;BME280;39866;48.638;-2.020;2023-02-13T07:03:47;103041.13;;;8.99;61.82
53960;BME280;39866;48.638;-2.020;2023-02-13T07:06:19;103051.91;;;9.08;61.68
53960;BME280;39866;48.638;-2.020;2023-02-13T07:08:45;103047.41;;;9.02;61.35
53960;BME280;39866;48.638;-2.020;2023-02-13T07:11:22;103055.25;;;8.96;61.72
53960;BME280;39866;48.638;-2.020;2023-02-13T07:13:49;103051.78;;;9.00;61.47
53960;BME280;39866;48.638;-2.020;2023-02-13T07:16:14;103048.81;;;8.80;61.84
53960;BME280;39866;48.638;-2.020;2023-02-13T07:18:40;103061.53;;;9.01;61.86
53960;BME280;39866;48.638;-2.020;2023-02-13T07:21:06;103062.34;;;8.94;61.84
53960;BME280;39866;48.638;-2.020;2023-02-13T07:23:32;103061.75;;;9.16;61.51
53960;BME280;39866;48.638;-2.020;2023-02-13T07:25:58;103060.63;;;9.01;61.35
53960;BME280;39866;48.638;-2.020;2023-02-13T07:28:24;103071.00;;;8.82;62.02
53960;BME280;39866;48.638;-2.020;2023-02-13T07:30:49;103055.06;;;8.82;61.93
53960;BME280;39866;48.638;-2.020;2023-02-13T07:33:15;103057.97;;;9.01;61.43
53960;BME280;39866;48.638;-2.020;2023-02-13T07:35:48;103054.44;;;9.02;61.47
53960;BME280;39866;48.638;-2.020;2023-02-13T07:38:15;103066.78;;;8.95;61.45
53960;BME280;39866;48.638;-2.020;2023-02-13T07:40:40;103074.69;;;8.90;61.58
53960;BME280;39866;48.638;-2.020;2023-02-13T07:43:06;103064.13;;;8.97;61.56
53960;BME280;39866;48.638;-2.020;2023-02-13T07:45:31;103064.19;;;9.00;61.61
53960;BME280;39866;48.638;-2.020;2023-02-13T07:47:57;103062.16;;;8.83;61.91
53960;BME280;39866;48.638;-2.020;2023-02-13T07:50:23;103060.59;;;8.98;61.70
53960;BME280;39866;48.638;-2.020;2023-02-13T07:52:55;103056.50;;;9.20;61.47
53960;BME280;39866;48.638;-2.020;2023-02-13T07:55:21;103060.03;;;9.20;61.33
53960;BME280;39866;48.638;-2.020;2023-02-13T07:57:46;103057.03;;;8.94;61.92
53960;BME280;39866;48.638;-2.020;2023-02-13T08:00:12;103064.03;;;8.90;62.09
53960;BME280;39866;48.638;-2.020;2023-02-13T08:02:38;103059.56;;;8.86;61.86
53960;BME280;39866;48.638;-2.020;2023-02-13T08:05:03;103050.53;;;8.77;62.12
53960;BME280;39866;48.638;-2.020;2023-02-13T08:07:29;103047.56;;;8.57;62.61
53960;BME280;39866;48.638;-2.020;2023-02-13T08:09:55;103051.97;;;8.56;63.15
53960;BME280;39866;48.638;-2.020;2023-02-13T08:12:39;103056.91;;;8.36;63.38
53960;BME280;39866;48.638;-2.020;2023-02-13T08:15:05;103056.25;;;8.47;63.44
53960;BME280;39866;48.638;-2.020;2023-02-13T08:17:30;103050.34;;;8.16;63.90
53960;BME280;39866;48.638;-2.020;2023-02-13T08:19:56;103060.06;;;8.15;64.07
53960;BME280;39866;48.638;-2.020;2023-02-13T08:22:21;103062.47;;;8.49;63.59
53960;BME280;39866;48.638;-2.020;2023-02-13T08:24:47;103058.91;;;8.48;63.53
53960;BME280;39866;48.638;-2.020;2023-02-13T08:27:13;103066.25;;;8.13;64.07
53960;BME280;39866;48.638;-2.020;2023-02-13T08:29:39;103077.47;;;8.45;64.41
53960;BME280;39866;48.638;-2.020;2023-02-13T08:32:05;103080.72;;;8.32;64.26
53960;BME280;39866;48.638;-2.020;2023-02-13T08:34:31;103076.22;;;8.28;64.25
53960;BME280;39866;48.638;-2.020;2023-02-13T08:36:56;103080.91;;;8.39;64.46
53960;BME280;39866;48.638;-2.020;2023-02-13T08:39:21;103078.50;;;8.53;63.46
53960;BME280;39866;48.638;-2.020;2023-02-13T08:41:47;103080.41;;;8.62;63.36
53960;BME280;39866;48.638;-2.020;2023-02-13T08:44:12;103087.38;;;8.57;63.65
53960;BME280;39866;48.638;-2.020;2023-02-13T08:46:37;103091.78;;;8.53;63.42
53960;BME280;39866;48.638;-2.020;2023-02-13T08:49:03;103095.34;;;8.57;63.98
53960;BME280;39866;48.638;-2.020;2023-02-13T08:51:28;103098.34;;;8.77;63.33
53960;BME280;39866;48.638;-2.020;2023-02-13T08:53:53;103078.09;;;8.83;63.41
53960;BME280;39866;48.638;-2.020;2023-02-13T08:56:19;103089.91;;;9.02;63.05
53960;BME280;39866;48.638;-2.020;2023-02-13T08:58:47;103090.91;;;8.56;63.93
53960;BME280;39866;48.638;-2.020;2023-02-13T09:01:13;103086.75;;;8.70;63.49
53960;BME280;39866;48.638;-2.020;2023-02-13T09:03:38;103089.56;;;8.81;63.26
53960;BME280;39866;48.638;-2.020;2023-02-13T09:06:03;103099.53;;;8.96;62.93
53960;BME280;39866;48.638;-2.020;2023-02-13T09:08:29;103083.59;;;8.96;62.55
53960;BME280;39866;48.638;-2.020;2023-02-13T09:10:59;103082.53;;;8.84;63.10
53960;BME280;39866;48.638;-2.020;2023-02-13T09:13:26;103095.63;;;8.72;63.45
53960;BME280;39866;48.638;-2.020;2023-02-13T09:15:51;103084.84;;;8.63;63.64
53960;BME280;39866;48.638;-2.020;2023-02-13T09:18:17;103089.81;;;8.96;63.30
53960;BME280;39866;48.638;-2.020;2023-02-13T09:20:42;103093.59;;;9.10;62.94
53960;BME280;39866;48.638;-2.020;2023-02-13T09:23:07;103082.94;;;9.10;62.64
53960;BME280;39866;48.638;-2.020;2023-02-13T09:25:33;103074.09;;;9.11;62.27
53960;BME280;39866;48.638;-2.020;2023-02-13T09:27:58;103068.31;;;8.81;62.96
53960;BME280;39866;48.638;-2.020;2023-02-13T09:30:24;103078.34;;;8.99;63.02
53960;BME280;39866;48.638;-2.020;2023-02-13T09:32:51;103078.84;;;8.75;63.91
53960;BME280;39866;48.638;-2.020;2023-02-13T09:35:17;103079.19;;;8.96;63.40
53960;BME280;39866;48.638;-2.020;2023-02-13T09:37:43;103077.50;;;9.03;62.99
53960;BME280;39866;48.638;-2.020;2023-02-13T09:40:29;103080.81;;;8.86;63.28
53960;BME280;39866;48.638;-2.020;2023-02-13T09:43:05;103084.41;;;8.90;63.51
53960;BME280;39866;48.638;-2.020;2023-02-13T09:45:31;103081.28;;;9.18;63.05
53960;BME280;39866;48.638;-2.020;2023-02-13T09:47:57;103084.19;;;9.37;62.40
53960;BME280;39866;48.638;-2.020;2023-02-13T09:50:25;103081.66;;;9.46;62.24
53960;BME280;39866;48.638;-2.020;2023-02-13T09:52:53;103081.53;;;9.37;62.32
53960;BME280;39866;48.638;-2.020;2023-02-13T09:55:23;103082.44;;;9.37;62.10
53960;BME280;39866;48.638;-2.020;2023-02-13T09:58:16;103080.88;;;9.55;61.98
53960;BME280;39866;48.638;-2.020;2023-02-13T10:00:48;103077.06;;;9.34;62.29
53960;BME280;39866;48.638;-2.020;2023-02-13T10:03:26;103080.53;;;9.30;62.32
53960;BME280;39866;48.638;-2.020;2023-02-13T10:06:13;103072.41;;;9.18;63.03
53960;BME280;39866;48.638;-2.020;2023-02-13T10:11:23;103078.88;;;9.35;62.69
53960;BME280;39866;48.638;-2.020;2023-02-13T10:16:34;103074.09;;;9.13;63.45
53960;BME280;39866;48.638;-2.020;2023-02-13T10:21:29;103076.78;;;9.81;62.17
53960;BME280;39866;48.638;-2.020;2023-02-13T10:24:06;103064.31;;;9.76;61.87
53960;BME280;39866;48.638;-2.020;2023-02-13T10:26:37;103076.06;;;9.96;62.12
53960;BME280;39866;48.638;-2.020;2023-02-13T10:29:14;103072.63;;;10.08;61.79
53960;BME280;39866;48.638;-2.020;2023-02-13T10:32:02;103078.13;;;10.23;61.62
53960;BME280;39866;48.638;-2.020;2023-02-13T10:34:34;103076.53;;;10.37;61.82
53960;BME280;39866;48.638;-2.020;2023-02-13T10:37:02;103080.16;;;10.46;61.41
53960;BME280;39866;48.638;-2.020;2023-02-13T10:39:29;103081.94;;;10.48;61.70
53960;BME280;39866;48.638;-2.020;2023-02-13T10:42:13;103075.72;;;10.48;61.16
53960;BME280;39866;48.638;-2.020;2023-02-13T10:45:02;103073.75;;;10.25;60.94
53960;BME280;39866;48.638;-2.020;2023-02-13T10:47:40;103079.38;;;10.57;60.93
53960;BME280;39866;48.638;-2.020;2023-02-13T10:55:23;103074.16;;;10.71;60.91
53960;BME280;39866;48.638;-2.020;2023-02-13T11:00:28;103082.28;;;10.86;60.67
53960;BME280;39866;48.638;-2.020;2023-02-13T11:02:58;103084.88;;;10.80;60.60
53960;BME280;39866;48.638;-2.020;2023-02-13T11:05:29;103084.03;;;10.87;60.89
53960;BME280;39866;48.638;-2.020;2023-02-13T11:07:56;103071.59;;;10.89;61.06
53960;BME280;39866;48.638;-2.020;2023-02-13T11:10:24;103064.56;;;10.98;61.06
53960;BME280;39866;48.638;-2.020;2023-02-13T11:12:50;103071.72;;;11.03;61.60
53960;BME280;39866;48.638;-2.020;2023-02-13T11:15:33;103070.03;;;11.16;61.06
53960;BME280;39866;48.638;-2.020;2023-02-13T11:18:31;103073.53;;;11.13;60.80
53960;BME280;39866;48.638;-2.020;2023-02-13T11:21:01;103076.25;;;11.20;61.17
53960;BME280;39866;48.638;-2.020;2023-02-13T11:26:35;103070.97;;;11.30;60.73
53960;BME280;39866;48.638;-2.020;2023-02-13T11:29:15;103070.09;;;11.34;61.09
53960;BME280;39866;48.638;-2.020;2023-02-13T11:31:42;103063.84;;;11.26;61.07
53960;BME280;39866;48.638;-2.020;2023-02-13T11:34:24;103055.78;;;11.12;60.93
53960;BME280;39866;48.638;-2.020;2023-02-13T11:37:06;103057.59;;;11.21;60.75
53960;BME280;39866;48.638;-2.020;2023-02-13T11:39:32;103062.09;;;11.30;60.87
53960;BME280;39866;48.638;-2.020;2023-02-13T11:41:58;103041.56;;;11.18;60.90
53960;BME280;39866;48.638;-2.020;2023-02-13T11:44:31;103047.94;;;11.45;60.44
53960;BME280;39866;48.638;-2.020;2023-02-13T11:46:58;103032.88;;;11.56;60.14
53960;BME280;39866;48.638;-2.020;2023-02-13T11:49:46;103038.19;;;11.53;60.31
53960;BME280;39866;48.638;-2.020;2023-02-13T11:52:32;103040.00;;;11.66;59.85
53960;BME280;39866;48.638;-2.020;2023-02-13T11:55:35;103026.63;;;11.49;60.07
53960;BME280;39866;48.638;-2.020;2023-02-13T12:00:40;103023.97;;;11.58;59.79
53960;BME280;39866;48.638;-2.020;2023-02-13T12:06:03;103025.81;;;11.79;59.58
53960;BME280;39866;48.638;-2.020;2023-02-13T12:08:30;103016.09;;;11.94;59.17
53960;BME280;39866;48.638;-2.020;2023-02-13T12:10:57;103024.13;;;12.03;58.92
53960;BME280;39866;48.638;-2.020;2023-02-13T12:13:31;103026.81;;;12.09;58.84
53960;BME280;39866;48.638;-2.020;2023-02-13T12:18:53;103014.34;;;12.11;58.57
53960;BME280;39866;48.638;-2.020;2023-02-13T12:27:41;103017.91;;;12.18;57.77
53960;BME280;39866;48.638;-2.020;2023-02-13T12:32:19;103006.31;;;12.15;57.23
53960;BME280;39866;48.638;-2.020;2023-02-13T12:38:06;103001.00;;;12.22;56.29
53960;BME280;39866;48.638;-2.020;2023-02-13T12:44:35;102992.09;;;12.52;56.02
53960;BME280;39866;48.638;-2.020;2023-02-13T12:47:21;102989.41;;;12.56;55.75
53960;BME280;39866;48.638;-2.020;2023-02-13T12:52:43;102981.41;;;12.52;54.49
53960;BME280;39866;48.638;-2.020;2023-02-13T12:55:42;102977.84;;;12.51;54.07
53960;BME280;39866;48.638;-2.020;2023-02-13T13:01:06;102977.81;;;12.74;53.46
53960;BME280;39866;48.638;-2.020;2023-02-13T13:03:44;102963.56;;;12.63;52.63
53960;BME280;39866;48.638;-2.020;2023-02-13T13:09:05;102952.00;;;12.50;50.25
53960;BME280;39866;48.638;-2.020;2023-02-13T13:20:00;102943.81;;;13.11;48.95
53960;BME280;39866;48.638;-2.020;2023-02-13T13:22:33;102932.13;;;13.37;48.87
53960;BME280;39866;48.638;-2.020;2023-02-13T13:25:28;102931.28;;;13.18;49.72
53960;BME280;39866;48.638;-2.020;2023-02-13T13:28:03;102919.66;;;13.33;49.48
53960;BME280;39866;48.638;-2.020;2023-02-13T13:30:32;102910.78;;;13.25;49.38
53960;BME280;39866;48.638;-2.020;2023-02-13T13:33:10;102901.00;;;13.10;49.23
53960;BME280;39866;48.638;-2.020;2023-02-13T13:35:38;102893.84;;;13.24;48.89
53960;BME280;39866;48.638;-2.020;2023-02-13T13:38:29;102904.50;;;13.30;48.53
53960;BME280;39866;48.638;-2.020;2023-02-13T13:41:04;102894.56;;;13.54;48.78
53960;BME280;39866;48.638;-2.020;2023-02-13T13:43:55;102904.34;;;13.58;48.35
53960;BME280;39866;48.638;-2.020;2023-02-13T13:51:39;102890.88;;;13.70;48.39
53960;BME280;39866;48.638;-2.020;2023-02-13T13:59:19;102883.56;;;13.92;47.83
53960;BME280;39866;48.638;-2.020;2023-02-13T14:01:44;102879.03;;;14.00;47.93
53960;BME280;39866;48.638;-2.020;2023-02-13T14:11:51;102867.38;;;14.03;46.36
53960;BME280;39866;48.638;-2.020;2023-02-13T14:16:51;102860.81;;;14.34;44.54
53960;BME280;39866;48.638;-2.020;2023-02-13T14:21:52;102863.34;;;14.51;43.87
53960;BME280;39866;48.638;-2.020;2023-02-13T14:24:18;102864.38;;;14.35;42.77
53960;BME280;39866;48.638;-2.020;2023-02-13T14:26:55;102865.81;;;14.71;43.65
53960;BME280;39866;48.638;-2.020;2023-02-13T14:29:33;102860.56;;;14.62;42.19
53960;BME280;39866;48.638;-2.020;2023-02-13T14:32:13;102871.72;;;14.98;42.63
53960;BME280;39866;48.638;-2.020;2023-02-13T14:34:40;102866.66;;;15.40;42.16
53960;BME280;39866;48.638;-2.020;2023-02-13T14:37:12;102856.66;;;15.49;42.57
53960;BME280;39866;48.638;-2.020;2023-02-13T14:40:11;102859.53;;;15.37;43.41
53960;BME280;39866;48.638;-2.020;2023-02-13T14:42:39;102852.09;;;15.56;43.31
53960;BME280;39866;48.638;-2.020;2023-02-13T14:45:14;102866.13;;;15.76;43.70
53960;BME280;39866;48.638;-2.020;2023-02-13T14:47:53;102865.41;;;16.16;42.73
53960;BME280;39866;48.638;-2.020;2023-02-13T14:50:54;102866.97;;;16.29;41.93
53960;BME280;39866;48.638;-2.020;2023-02-13T14:53:23;102873.22;;;16.28;41.12
53960;BME280;39866;48.638;-2.020;2023-02-13T14:56:11;102869.19;;;16.97;40.38
53960;BME280;39866;48.638;-2.020;2023-02-13T14:58:46;102866.22;;;17.09;39.24
53960;BME280;39866;48.638;-2.020;2023-02-13T15:03:47;102865.06;;;17.23;38.01
53960;BME280;39866;48.638;-2.020;2023-02-13T15:06:40;102870.88;;;17.03;38.54
53960;BME280;39866;48.638;-2.020;2023-02-13T15:09:27;102879.13;;;17.34;37.17
53960;BME280;39866;48.638;-2.020;2023-02-13T15:11:56;102876.97;;;17.50;37.23